Time,TemperatureF,DewpointF,PressureIn,WindDirection,WindDirectionDegrees,WindSpeedMPH,WindSpeedGustMPH,Humidity,HourlyPrecipIn,Conditions,Clouds,dailyrainin,SoftwareType,DateUTC
2013-06-29 00:01:00,69.0,66.9,29.26,NNW,336,0.0,0.0,93,0.00,,,0.02,Wunderground v.1.15,2013-06-29 04:01:00,
2013-06-29 00:02:00,69.0,66.9,29.26,NNW,336,0.0,0.0,93,0.00,,,0.00,Wunderground v.1.15,2013-06-29 04:02:00,
2013-06-29 00:03:00,69.0,66.9,29.26,NNW,336,0.0,0.0,93,0.00,,,0.00,Wunderground v.1.15,2013-06-29 04:03:00,
2013-06-29 00:05:00,69.0,66.9,29.25,NNW,336,0.0,0.0,93,0.00,,,0.00,Wunderground v.1.15,2013-06-29 04:05:00,
2013-06-29 00:09:00,69.0,66.9,29.25,NNW,336,0.0,0.0,93,0.00,,,0.00,Wunderground v.1.15,2013-06-29 04:09:00,
2013-06-29 00:14:00,69.0,66.9,29.25,NNW,336,0.0,0.0,93,0.00,,,0.00,Wunderground v.1.15,2013-06-29 04:14:00,
2013-06-29 00:20:00,69.0,66.9,29.25,NNW,336,0.0,0.0,93,0.00,,,0.00,Wunderground v.1.15,2013-06-29 04:20:00,
2013-06-29 02:48:00,67.6,64.2,29.21,NW,320,0.0,1.0,89,0.00,,,0.00,Wunderground v.1.15,2013-06-29 06:48:00,
2013-06-29 02:54:00,67.7,64.0,29.21,NNW,327,0.0,3.0,88,0.00,,,0.00,Wunderground v.1.15,2013-06-29 06:54:00,
2013-06-29 02:59:00,67.8,64.1,29.21,West,265,1.0,7.0,88,0.00,,,0.00,Wunderground v.1.15,2013-06-29 06:59:00,
2013-06-29 03:04:00,67.8,63.8,29.21,NNW,338,1.0,3.0,87,0.00,,,0.00,Wunderground v.1.15,2013-06-29 07:04:00,
2013-06-29 03:10:00,67.7,63.7,29.21,North,355,0.0,0.0,87,0.00,,,0.00,Wunderground v.1.15,2013-06-29 07:10:00,
2013-06-29 03:16:00,67.8,63.8,29.21,WNW,294,0.0,4.0,87,0.00,,,0.00,Wunderground v.1.15,2013-06-29 07:16:00,
2013-06-29 03:21:00,67.8,63.5,29.21,NW,307,0.0,1.0,86,0.00,,,0.00,Wunderground v.1.15,2013-06-29 07:21:00,
2013-06-29 03:27:00,67.7,63.4,29.22,West,265,0.0,1.0,86,0.00,,,0.00,Wunderground v.1.15,2013-06-29 07:27:00,
2013-06-29 03:33:00,67.6,63.9,29.22,West,265,0.0,0.0,88,0.00,,,0.00,Wunderground v.1.15,2013-06-29 07:33:00,
2013-06-29 03:39:00,67.2,63.5,29.22,West,265,0.0,0.0,88,0.00,,,0.00,Wunderground v.1.15,2013-06-29 07:39:00,
2013-06-29 03:44:00,66.8,63.5,29.23,West,265,0.0,0.0,89,0.00,,,0.00,Wunderground v.1.15,2013-06-29 07:44:00,
2013-06-29 03:49:00,66.3,63.0,29.23,West,265,0.0,0.0,89,0.00,,,0.00,Wunderground v.1.15,2013-06-29 07:49:00,
2013-06-29 03:55:00,65.9,62.9,29.23,West,265,0.0,0.0,90,0.00,,,0.00,Wunderground v.1.15,2013-06-29 07:55:00,
2013-06-29 04:00:00,65.6,62.9,29.23,West,265,0.0,0.0,91,0.00,,,0.00,Wunderground v.1.15,2013-06-29 08:00:00,
2013-06-29 04:06:00,65.4,62.7,29.23,West,265,0.0,0.0,91,0.00,,,0.00,Wunderground v.1.15,2013-06-29 08:06:00,
2013-06-29 04:11:00,65.2,62.8,29.23,West,265,0.0,1.0,92,0.00,,,0.00,Wunderground v.1.15,2013-06-29 08:11:00,
2013-06-29 04:16:00,64.9,62.5,29.23,West,265,0.0,2.0,92,0.00,,,0.00,Wunderground v.1.15,2013-06-29 08:16:00,
2013-06-29 04:48:00,64.4,62.3,29.24,West,266,0.0,0.0,93,0.00,,,0.00,Wunderground v.1.15,2013-06-29 08:48:00,
2013-06-29 04:54:00,64.3,62.2,29.24,West,266,0.0,0.0,93,0.00,,,0.00,Wunderground v.1.15,2013-06-29 08:54:00,
2013-06-29 05:00:00,64.2,62.1,29.24,West,266,0.0,0.0,93,0.00,,,0.00,Wunderground v.1.15,2013-06-29 09:00:00,
2013-06-29 05:06:00,64.0,61.9,29.24,West,266,0.0,0.0,93,0.00,,,0.00,Wunderground v.1.15,2013-06-29 09:06:00,
2013-06-29 05:11:00,64.0,62.2,29.24,West,266,0.0,1.0,94,0.00,,,0.00,Wunderground v.1.15,2013-06-29 09:11:00,
2013-06-29 05:16:00,63.8,61.7,29.24,West,266,0.0,1.0,93,0.00,,,0.00,Wunderground v.1.15,2013-06-29 09:16:00,
2013-06-29 05:22:00,63.8,62.0,29.25,West,266,0.0,0.0,94,0.00,,,0.00,Wunderground v.1.15,2013-06-29 09:22:00,
2013-06-29 05:27:00,63.8,62.0,29.25,West,266,0.0,0.0,94,0.00,,,0.00,Wunderground v.1.15,2013-06-29 09:27:00,
2013-06-29 05:33:00,63.8,62.0,29.25,West,271,0.0,1.0,94,0.00,,,0.00,Wunderground v.1.15,2013-06-29 09:33:00,
2013-06-29 05:39:00,63.9,62.1,29.25,West,271,0.0,1.0,94,0.00,,,0.00,Wunderground v.1.15,2013-06-29 09:39:00,
2013-06-29 05:45:00,63.9,62.1,29.24,West,271,0.0,1.0,94,0.00,,,0.00,Wunderground v.1.15,2013-06-29 09:45:00,
2013-06-29 05:50:00,63.9,62.1,29.25,NW,304,0.0,0.0,94,0.00,,,0.00,Wunderground v.1.15,2013-06-29 09:50:00,
2013-06-29 05:56:00,63.9,61.8,29.25,NW,304,0.0,0.0,93,0.00,,,0.00,Wunderground v.1.15,2013-06-29 09:56:00,
2013-06-29 06:01:00,63.9,62.1,29.25,NW,304,0.0,0.0,94,0.00,,,0.00,Wunderground v.1.15,2013-06-29 10:01:00,
2013-06-29 06:06:00,63.9,62.1,29.25,NW,304,0.0,1.0,94,0.00,,,0.00,Wunderground v.1.15,2013-06-29 10:06:00,
2013-06-29 06:12:00,63.9,62.1,29.25,NW,304,0.0,0.0,94,0.00,,,0.00,Wunderground v.1.15,2013-06-29 10:12:00,
2013-06-29 06:18:00,63.9,61.8,29.25,NW,305,0.0,1.0,93,0.00,,,0.00,Wunderground v.1.15,2013-06-29 10:18:00,
2013-06-29 06:24:00,63.9,62.1,29.25,NW,305,0.0,0.0,94,0.00,,,0.00,Wunderground v.1.15,2013-06-29 10:24:00,
2013-06-29 06:29:00,64.0,62.2,29.25,NW,305,0.0,1.0,94,0.00,,,0.00,Wunderground v.1.15,2013-06-29 10:29:00,
2013-06-29 06:35:00,64.0,62.2,29.25,NW,305,0.0,1.0,94,0.00,,,0.00,Wunderground v.1.15,2013-06-29 10:35:00,
2013-06-29 06:41:00,64.1,62.0,29.25,NW,305,0.0,0.0,93,0.00,,,0.00,Wunderground v.1.15,2013-06-29 10:41:00,
2013-06-29 06:48:00,64.3,62.2,29.25,NW,305,0.0,0.0,93,0.00,,,0.00,Wunderground v.1.15,2013-06-29 10:48:00,
2013-06-29 06:53:00,64.4,62.3,29.25,NW,305,0.0,0.0,93,0.00,,,0.00,Wunderground v.1.15,2013-06-29 10:53:00,
2013-06-29 06:59:00,64.6,62.5,29.25,NW,305,0.0,1.0,93,0.00,,,0.00,Wunderground v.1.15,2013-06-29 10:59:00,
2013-06-29 07:04:00,64.8,62.4,29.25,NW,305,0.0,0.0,92,0.00,,,0.00,Wunderground v.1.15,2013-06-29 11:04:00,
2013-06-29 07:10:00,65.1,62.7,29.25,NW,326,0.0,3.0,92,0.00,,,0.00,Wunderground v.1.15,2013-06-29 11:10:00,
2013-06-29 07:16:00,65.6,62.9,29.25,NNW,327,1.0,3.0,91,0.00,,,0.00,Wunderground v.1.15,2013-06-29 11:16:00,
2013-06-29 07:21:00,65.8,62.8,29.25,WNW,284,1.0,1.0,90,0.00,,,0.00,Wunderground v.1.15,2013-06-29 11:21:00,
2013-06-29 07:27:00,65.9,62.9,29.25,WNW,284,0.0,1.0,90,0.00,,,0.00,Wunderground v.1.15,2013-06-29 11:27:00,
2013-06-29 07:33:00,66.0,63.0,29.26,WNW,285,0.0,1.0,90,0.00,,,0.00,Wunderground v.1.15,2013-06-29 11:33:00,
2013-06-29 07:39:00,66.2,63.2,29.26,NW,315,0.0,3.0,90,0.00,,,0.00,Wunderground v.1.15,2013-06-29 11:39:00,
2013-06-29 07:45:00,66.5,63.2,29.26,NNW,329,0.0,0.0,89,0.00,,,0.00,Wunderground v.1.15,2013-06-29 11:45:00,
2013-06-29 07:50:00,66.7,63.4,29.26,NNW,329,0.0,0.0,89,0.00,,,0.00,Wunderground v.1.15,2013-06-29 11:50:00,
2013-06-29 07:56:00,66.8,63.5,29.26,NW,320,0.0,1.0,89,0.00,,,0.00,Wunderground v.1.15,2013-06-29 11:56:00,
2013-06-29 08:01:00,66.8,63.1,29.26,NNE,18,0.0,1.0,88,0.00,,,0.00,Wunderground v.1.15,2013-06-29 12:01:00,
2013-06-29 08:07:00,66.8,63.5,29.27,NNE,18,0.0,1.0,89,0.00,,,0.00,Wunderground v.1.15,2013-06-29 12:07:00,
2013-06-29 08:13:00,66.8,63.5,29.27,NNE,18,0.0,0.0,89,0.00,,,0.00,Wunderground v.1.15,2013-06-29 12:13:00,
2013-06-29 08:19:00,66.9,63.9,29.27,NNE,13,0.0,0.0,90,0.00,,,0.00,Wunderground v.1.15,2013-06-29 12:19:00,
2013-06-29 08:24:00,67.0,63.6,29.26,WNW,295,0.0,1.0,89,0.00,,,0.00,Wunderground v.1.15,2013-06-29 12:24:00,
2013-06-29 08:30:00,67.2,63.2,29.26,WNW,285,1.0,1.0,87,0.00,,,0.00,Wunderground v.1.15,2013-06-29 12:30:00,
2013-06-29 08:36:00,67.3,63.3,29.26,West,277,0.0,1.0,87,0.00,,,0.00,Wunderground v.1.15,2013-06-29 12:36:00,
2013-06-29 08:41:00,67.5,63.2,29.26,North,350,0.0,1.0,86,0.00,,,0.00,Wunderground v.1.15,2013-06-29 12:41:00,
2013-06-29 08:48:00,67.7,63.4,29.26,North,350,0.0,0.0,86,0.00,,,0.00,Wunderground v.1.15,2013-06-29 12:48:00,
2013-06-29 08:54:00,67.8,63.5,29.26,North,350,0.0,1.0,86,0.00,,,0.00,Wunderground v.1.15,2013-06-29 12:54:00,
2013-06-29 09:00:00,67.8,63.5,29.27,North,350,0.0,0.0,86,0.00,,,0.00,Wunderground v.1.15,2013-06-29 13:00:00,
2013-06-29 09:06:00,67.8,63.5,29.27,North,350,0.0,1.0,86,0.00,,,0.00,Wunderground v.1.15,2013-06-29 13:06:00,
2013-06-29 09:11:00,67.6,63.3,29.27,North,350,0.0,0.0,86,0.00,,,0.00,Wunderground v.1.15,2013-06-29 13:11:00,
2013-06-29 09:17:00,67.4,63.4,29.27,North,350,0.0,0.0,87,0.00,,,0.00,Wunderground v.1.15,2013-06-29 13:17:00,
2013-06-29 09:22:00,67.3,63.3,29.27,North,350,0.0,0.0,87,0.00,,,0.00,Wunderground v.1.15,2013-06-29 13:22:00,
2013-06-29 09:28:00,67.2,63.2,29.27,North,350,0.0,0.0,87,0.00,,,0.00,Wunderground v.1.15,2013-06-29 13:28:00,
2013-06-29 09:34:00,67.3,63.3,29.27,North,350,0.0,0.0,87,0.00,,,0.00,Wunderground v.1.15,2013-06-29 13:34:00,
2013-06-29 09:40:00,67.5,63.5,29.28,NNW,336,0.0,0.0,87,0.00,,,0.00,Wunderground v.1.15,2013-06-29 13:40:00,
2013-06-29 09:48:00,68.2,63.9,29.27,NNW,333,1.0,1.0,86,0.00,,,0.00,Wunderground v.1.15,2013-06-29 13:48:00,
2013-06-29 09:54:00,68.8,64.1,29.27,NW,319,1.0,1.0,85,0.00,,,0.00,Wunderground v.1.15,2013-06-29 13:54:00,
2013-06-29 10:00:00,69.2,64.2,29.27,NW,309,1.0,1.0,84,0.00,,,0.00,Wunderground v.1.15,2013-06-29 14:00:00,
2013-06-29 10:06:00,69.6,64.2,29.28,NW,309,0.0,1.0,83,0.00,,,0.00,Wunderground v.1.15,2013-06-29 14:06:00,
2013-06-29 10:11:00,70.0,64.2,29.28,North,5,0.0,0.0,82,0.00,,,0.00,Wunderground v.1.15,2013-06-29 14:11:00,
2013-06-29 10:17:00,70.4,65.0,29.28,North,5,0.0,0.0,83,0.00,,,0.00,Wunderground v.1.15,2013-06-29 14:17:00,
2013-06-29 10:23:00,70.7,64.6,29.28,North,5,0.0,1.0,81,0.00,,,0.00,Wunderground v.1.15,2013-06-29 14:23:00,
2013-06-29 10:29:00,71.2,64.7,29.28,North,5,0.0,1.0,80,0.00,,,0.00,Wunderground v.1.15,2013-06-29 14:29:00,
2013-06-29 10:34:00,71.7,65.2,29.27,North,360,0.0,1.0,80,0.00,,,0.00,Wunderground v.1.15,2013-06-29 14:34:00,
2013-06-29 10:40:00,72.1,65.6,29.27,North,360,0.0,0.0,80,0.00,,,0.00,Wunderground v.1.15,2013-06-29 14:40:00,
2013-06-29 10:48:00,72.6,65.7,29.27,NE,37,0.0,0.0,79,0.00,,,0.00,Wunderground v.1.15,2013-06-29 14:48:00,
2013-06-29 10:54:00,73.1,65.8,29.27,NE,36,0.0,1.0,78,0.00,,,0.00,Wunderground v.1.15,2013-06-29 14:54:00,
2013-06-29 10:59:00,73.4,66.1,29.27,NE,36,0.0,4.0,78,0.00,,,0.00,Wunderground v.1.15,2013-06-29 14:59:00,
2013-06-29 11:05:00,73.9,66.6,29.27,NE,36,0.0,0.0,78,0.00,,,0.00,Wunderground v.1.15,2013-06-29 15:05:00,
2013-06-29 11:12:00,74.2,66.9,29.27,NE,39,0.0,0.0,78,0.00,,,0.00,Wunderground v.1.15,2013-06-29 15:12:00,
2013-06-29 11:18:00,74.7,67.0,29.27,NE,39,0.0,1.0,77,0.00,,,0.00,Wunderground v.1.15,2013-06-29 15:18:00,
2013-06-29 11:24:00,75.1,65.9,29.27,NNE,15,0.0,1.0,73,0.00,,,0.00,Wunderground v.1.15,2013-06-29 15:24:00,
2013-06-29 11:29:00,75.6,66.7,29.27,NNE,21,0.0,1.0,74,0.00,,,0.00,Wunderground v.1.15,2013-06-29 15:29:00,
2013-06-29 11:48:00,77.7,64.5,29.27,West,276,0.0,0.0,64,0.00,,,0.00,Wunderground v.1.15,2013-06-29 15:48:00,
2013-06-29 11:54:00,78.4,63.4,29.27,NW,320,0.0,1.0,60,0.00,,,0.00,Wunderground v.1.15,2013-06-29 15:54:00,
2013-06-29 11:59:00,78.7,63.2,29.27,North,350,0.0,2.0,59,0.00,,,0.00,Wunderground v.1.15,2013-06-29 15:59:00,
2013-06-29 12:04:00,78.5,63.5,29.27,WNW,300,1.0,3.0,60,0.00,,,0.00,Wunderground v.1.15,2013-06-29 16:04:00,
2013-06-29 12:10:00,78.5,61.5,29.27,ESE,123,1.0,1.0,56,0.00,,,0.00,Wunderground v.1.15,2013-06-29 16:10:00,
2013-06-29 12:16:00,78.9,63.4,29.27,ENE,63,0.0,1.0,59,0.00,,,0.00,Wunderground v.1.15,2013-06-29 16:16:00,
2013-06-29 12:22:00,79.3,60.7,29.27,NW,325,1.0,1.0,53,0.00,,,0.00,Wunderground v.1.15,2013-06-29 16:22:00,
2013-06-29 12:28:00,79.6,59.3,29.27,SE,146,1.0,3.0,50,0.00,,,0.00,Wunderground v.1.15,2013-06-29 16:28:00,
2013-06-29 12:34:00,79.5,58.7,29.28,North,5,1.0,2.0,49,0.00,,,0.00,Wunderground v.1.15,2013-06-29 16:34:00,
2013-06-29 12:40:00,79.7,58.3,29.28,ESE,120,1.0,2.0,48,0.00,,,0.00,Wunderground v.1.15,2013-06-29 16:40:00,
2013-06-29 12:48:00,80.1,56.8,29.29,NE,42,1.0,1.0,45,0.00,,,0.00,Wunderground v.1.15,2013-06-29 16:48:00,
2013-06-29 12:54:00,80.1,56.2,29.29,SE,142,2.0,2.0,44,0.00,,,0.00,Wunderground v.1.15,2013-06-29 16:54:00,
2013-06-29 13:00:00,80.1,56.8,29.29,ESE,103,2.0,2.0,45,0.00,,,0.00,Wunderground v.1.15,2013-06-29 17:00:00,
2013-06-29 13:06:00,80.4,57.7,29.29,ENE,58,1.0,3.0,46,0.00,,,0.00,Wunderground v.1.15,2013-06-29 17:06:00,
2013-06-29 13:12:00,80.3,54.5,29.29,East,82,2.0,4.0,41,0.00,,,0.00,Wunderground v.1.15,2013-06-29 17:12:00,
2013-06-29 13:17:00,80.2,56.9,29.29,WSW,258,3.0,4.0,45,0.00,,,0.00,Wunderground v.1.15,2013-06-29 17:17:00,
2013-06-29 13:23:00,80.5,56.6,29.29,East,96,2.0,2.0,44,0.00,,,0.00,Wunderground v.1.15,2013-06-29 17:23:00,
2013-06-29 13:29:00,80.6,57.9,29.29,WNW,300,1.0,2.0,46,0.00,,,0.00,Wunderground v.1.15,2013-06-29 17:29:00,
2013-06-29 13:35:00,80.8,56.2,29.28,WNW,297,1.0,1.0,43,0.00,,,0.00,Wunderground v.1.15,2013-06-29 17:35:00,
2013-06-29 13:40:00,81.2,57.8,29.29,West,279,1.0,1.0,45,0.00,,,0.00,Wunderground v.1.15,2013-06-29 17:40:00,
2013-06-29 13:48:00,81.9,57.2,29.29,WNW,300,1.0,2.0,43,0.00,,,0.00,Wunderground v.1.15,2013-06-29 17:48:00,
2013-06-29 13:54:00,81.5,56.8,29.28,SSW,204,2.0,5.0,43,0.00,,,0.00,Wunderground v.1.15,2013-06-29 17:54:00,
2013-06-29 14:00:00,81.7,57.7,29.28,NNW,331,1.0,2.0,44,0.00,,,0.00,Wunderground v.1.15,2013-06-29 18:00:00,
2013-06-29 14:06:00,81.6,58.8,29.28,East,86,1.0,6.0,46,0.00,,,0.00,Wunderground v.1.15,2013-06-29 18:06:00,
2013-06-29 14:11:00,81.5,56.8,29.28,East,94,1.0,1.0,43,0.00,,,0.00,Wunderground v.1.15,2013-06-29 18:11:00,
2013-06-29 14:17:00,81.4,59.8,29.28,East,99,1.0,2.0,48,0.00,,,0.00,Wunderground v.1.15,2013-06-29 18:17:00,
2013-06-29 14:22:00,82.0,57.9,29.28,NW,310,1.0,3.0,44,0.00,,,0.00,Wunderground v.1.15,2013-06-29 18:22:00,
2013-06-29 14:27:00,82.1,58.0,29.28,NW,324,1.0,3.0,44,0.00,,,0.00,Wunderground v.1.15,2013-06-29 18:27:00,
2013-06-29 14:33:00,81.8,58.4,29.28,NNW,332,0.0,1.0,45,0.00,,,0.00,Wunderground v.1.15,2013-06-29 18:33:00,
2013-06-29 14:39:00,81.9,59.1,29.28,NW,306,0.0,1.0,46,0.00,,,0.00,Wunderground v.1.15,2013-06-29 18:39:00,
2013-06-29 14:45:00,82.2,58.7,29.28,NNE,16,1.0,1.0,45,0.00,,,0.00,Wunderground v.1.15,2013-06-29 18:45:00,
2013-06-29 14:50:00,82.1,58.7,29.28,NW,317,1.0,2.0,45,0.00,,,0.00,Wunderground v.1.15,2013-06-29 18:50:00,
2013-06-29 14:55:00,82.0,59.8,29.28,NNW,337,1.0,4.0,47,0.00,,,0.00,Wunderground v.1.15,2013-06-29 18:55:00,
2013-06-29 15:00:00,81.6,59.4,29.27,NE,36,1.0,1.0,47,0.00,,,0.00,Wunderground v.1.15,2013-06-29 19:00:00,
2013-06-29 15:06:00,81.1,60.7,29.27,SSE,161,1.0,2.0,50,0.00,,,0.00,Wunderground v.1.15,2013-06-29 19:06:00,
2013-06-29 15:12:00,81.6,62.3,29.27,NW,326,1.0,8.0,52,0.00,,,0.00,Wunderground v.1.15,2013-06-29 19:12:00,
2013-06-29 15:17:00,82.3,60.1,29.27,NW,325,1.0,8.0,47,0.00,,,0.00,Wunderground v.1.15,2013-06-29 19:17:00,
2013-06-29 15:23:00,83.3,61.0,29.26,NE,55,1.0,4.0,47,0.00,,,0.00,Wunderground v.1.15,2013-06-29 19:23:00,
2013-06-29 15:29:00,83.6,61.8,29.26,NW,311,1.0,4.0,48,0.00,,,0.00,Wunderground v.1.15,2013-06-29 19:29:00,
2013-06-29 15:35:00,83.2,60.3,29.26,NNE,28,1.0,2.0,46,0.00,,,0.00,Wunderground v.1.15,2013-06-29 19:35:00,
2013-06-29 15:40:00,82.8,60.5,29.26,NNE,24,1.0,1.0,47,0.00,,,0.00,Wunderground v.1.15,2013-06-29 19:40:00,
2013-06-29 15:48:00,82.3,58.2,29.26,ESE,123,1.0,1.0,44,0.00,,,0.00,Wunderground v.1.15,2013-06-29 19:48:00,
2013-06-29 15:53:00,81.9,59.7,29.26,East,98,1.0,3.0,47,0.00,,,0.00,Wunderground v.1.15,2013-06-29 19:53:00,
2013-06-29 15:59:00,82.4,59.5,29.26,ENE,63,1.0,4.0,46,0.00,,,0.00,Wunderground v.1.15,2013-06-29 19:59:00,
2013-06-29 16:04:00,82.2,60.0,29.26,NW,323,1.0,2.0,47,0.00,,,0.00,Wunderground v.1.15,2013-06-29 20:04:00,
2013-06-29 16:10:00,82.3,60.1,29.26,SSE,152,0.0,2.0,47,0.00,,,0.00,Wunderground v.1.15,2013-06-29 20:10:00,
2013-06-29 16:15:00,82.1,56.7,29.26,ENE,71,1.0,2.0,42,0.00,,,0.00,Wunderground v.1.15,2013-06-29 20:15:00,
2013-06-29 16:21:00,81.9,57.8,29.26,ENE,71,0.0,1.0,44,0.00,,,0.00,Wunderground v.1.15,2013-06-29 20:21:00,
2013-06-29 16:27:00,82.0,56.6,29.26,SSW,211,1.0,2.0,42,0.00,,,0.00,Wunderground v.1.15,2013-06-29 20:27:00,
2013-06-29 16:33:00,81.7,57.0,29.26,NE,42,1.0,3.0,43,0.00,,,0.00,Wunderground v.1.15,2013-06-29 20:33:00,
2013-06-29 16:39:00,81.9,57.2,29.25,North,355,1.0,3.0,43,0.00,,,0.00,Wunderground v.1.15,2013-06-29 20:39:00,
2013-06-29 16:44:00,81.8,60.2,29.26,SW,221,0.0,1.0,48,0.00,,,0.00,Wunderground v.1.15,2013-06-29 20:44:00,
2013-06-29 16:49:00,82.0,56.6,29.26,SSE,147,0.0,0.0,42,0.00,,,0.00,Wunderground v.1.15,2013-06-29 20:49:00,
2013-06-29 16:54:00,81.8,57.8,29.25,SE,124,1.0,1.0,44,0.00,,,0.00,Wunderground v.1.15,2013-06-29 20:54:00,
2013-06-29 17:00:00,81.2,57.8,29.26,ENE,72,1.0,1.0,45,0.00,,,0.00,Wunderground v.1.15,2013-06-29 21:00:00,
2013-06-29 17:06:00,81.1,59.0,29.26,NNW,344,0.0,2.0,47,0.00,,,0.00,Wunderground v.1.15,2013-06-29 21:06:00,
2013-06-29 17:11:00,81.5,59.9,29.26,North,9,0.0,0.0,48,0.00,,,0.00,Wunderground v.1.15,2013-06-29 21:11:00,
2013-06-29 17:16:00,81.4,58.0,29.26,NW,306,0.0,1.0,45,0.00,,,0.00,Wunderground v.1.15,2013-06-29 21:16:00,
2013-06-29 17:22:00,81.6,60.0,29.26,NNW,348,0.0,1.0,48,0.00,,,0.00,Wunderground v.1.15,2013-06-29 21:22:00,
2013-06-29 17:28:00,81.6,58.8,29.26,ENE,57,0.0,3.0,46,0.00,,,0.00,Wunderground v.1.15,2013-06-29 21:28:00,
2013-06-29 17:34:00,81.0,59.5,29.26,North,5,1.0,1.0,48,0.00,,,0.00,Wunderground v.1.15,2013-06-29 21:34:00,
2013-06-29 17:39:00,80.7,60.3,29.26,North,5,0.0,1.0,50,0.00,,,0.00,Wunderground v.1.15,2013-06-29 21:39:00,
2013-06-29 17:45:00,80.3,60.0,29.25,WNW,302,0.0,1.0,50,0.00,,,0.00,Wunderground v.1.15,2013-06-29 21:45:00,
2013-06-29 17:50:00,80.2,60.4,29.25,NE,38,0.0,0.0,51,0.00,,,0.00,Wunderground v.1.15,2013-06-29 21:50:00,
2013-06-29 17:56:00,80.1,59.2,29.25,NNW,333,0.0,4.0,49,0.00,,,0.00,Wunderground v.1.15,2013-06-29 21:56:00,
2013-06-29 18:02:00,79.9,59.6,29.25,North,5,0.0,0.0,50,0.00,,,0.00,Wunderground v.1.15,2013-06-29 22:02:00,
2013-06-29 18:07:00,79.6,60.4,29.25,NW,308,1.0,2.0,52,0.00,,,0.00,Wunderground v.1.15,2013-06-29 22:07:00,
2013-06-29 18:12:00,79.5,60.9,29.24,NW,308,0.0,0.0,53,0.00,,,0.00,Wunderground v.1.15,2013-06-29 22:12:00,
2013-06-29 18:18:00,79.5,61.9,29.24,NW,308,0.0,0.0,55,0.00,,,0.00,Wunderground v.1.15,2013-06-29 22:18:00,
2013-06-29 18:24:00,79.7,58.8,29.24,NW,313,0.0,1.0,49,0.00,,,0.00,Wunderground v.1.15,2013-06-29 22:24:00,
2013-06-29 18:29:00,79.4,62.8,29.25,NNW,327,0.0,1.0,57,0.00,,,0.00,Wunderground v.1.15,2013-06-29 22:29:00,
2013-06-29 18:35:00,78.6,61.6,29.25,SW,219,0.0,2.0,56,0.00,,,0.00,Wunderground v.1.15,2013-06-29 22:35:00,
2013-06-29 18:40:00,78.1,58.5,29.25,West,259,0.0,0.0,51,0.00,,,0.00,Wunderground v.1.15,2013-06-29 22:40:00,
2013-06-29 18:45:00,77.7,60.8,29.25,West,261,0.0,0.0,56,0.00,,,0.00,Wunderground v.1.15,2013-06-29 22:45:00,
2013-06-29 18:51:00,77.1,60.2,29.25,West,261,0.0,0.0,56,0.00,,,0.00,Wunderground v.1.15,2013-06-29 22:51:00,
2013-06-29 18:57:00,76.8,60.9,29.25,West,261,0.0,3.0,58,0.00,,,0.00,Wunderground v.1.15,2013-06-29 22:57:00,
2013-06-29 19:02:00,76.5,63.0,29.25,SW,236,0.0,0.0,63,0.00,,,0.00,Wunderground v.1.15,2013-06-29 23:02:00,
2013-06-29 19:07:00,76.3,62.8,29.25,NNW,331,0.0,1.0,63,0.00,,,0.00,Wunderground v.1.15,2013-06-29 23:07:00,
2013-06-29 19:13:00,75.8,63.6,29.25,NNW,331,0.0,0.0,66,0.00,,,0.00,Wunderground v.1.15,2013-06-29 23:13:00,
2013-06-29 19:19:00,75.4,63.2,29.25,NW,319,0.0,1.0,66,0.00,,,0.00,Wunderground v.1.15,2013-06-29 23:19:00,
2013-06-29 19:24:00,75.0,62.9,29.25,NW,319,0.0,1.0,66,0.00,,,0.00,Wunderground v.1.15,2013-06-29 23:24:00,
2013-06-29 19:29:00,74.5,62.8,29.25,NW,319,0.0,1.0,67,0.00,,,0.00,Wunderground v.1.15,2013-06-29 23:29:00,
2013-06-29 19:35:00,73.9,62.2,29.25,NW,319,0.0,1.0,67,0.00,,,0.00,Wunderground v.1.15,2013-06-29 23:35:00,
2013-06-29 19:41:00,73.3,62.1,29.26,NW,319,0.0,0.0,68,0.00,,,0.00,Wunderground v.1.15,2013-06-29 23:41:00,
2013-06-29 19:48:00,72.8,62.0,29.26,NW,319,0.0,0.0,69,0.00,,,0.00,Wunderground v.1.15,2013-06-29 23:48:00,
2013-06-29 19:55:00,72.4,62.1,29.26,NW,319,0.0,0.0,70,0.00,,,0.00,Wunderground v.1.15,2013-06-29 23:55:00,
2013-06-29 20:00:00,72.0,61.7,29.26,NW,319,0.0,0.0,70,0.00,,,0.00,Wunderground v.1.15,2013-06-30 00:00:00,
2013-06-29 20:06:00,71.6,61.3,29.26,NW,319,0.0,0.0,70,0.00,,,0.00,Wunderground v.1.15,2013-06-30 00:06:00,
2013-06-29 20:12:00,71.2,60.9,29.26,NW,319,0.0,1.0,70,0.00,,,0.00,Wunderground v.1.15,2013-06-30 00:12:00,
2013-06-29 20:18:00,70.9,61.0,29.27,NW,319,0.0,1.0,71,0.00,,,0.00,Wunderground v.1.15,2013-06-30 00:18:00,
2013-06-29 20:23:00,70.6,60.7,29.27,NW,319,0.0,0.0,71,0.00,,,0.00,Wunderground v.1.15,2013-06-30 00:23:00,
2013-06-29 20:29:00,70.2,60.4,29.27,NW,319,0.0,1.0,71,0.00,,,0.00,Wunderground v.1.15,2013-06-30 00:29:00,
2013-06-29 20:34:00,70.0,60.9,29.27,NW,319,0.0,0.0,73,0.00,,,0.00,Wunderground v.1.15,2013-06-30 00:34:00,
2013-06-29 20:40:00,69.9,60.8,29.27,NW,319,0.0,0.0,73,0.00,,,0.00,Wunderground v.1.15,2013-06-30 00:40:00,
2013-06-29 20:48:00,69.6,60.9,29.27,NW,319,0.0,0.0,74,0.00,,,0.00,Wunderground v.1.15,2013-06-30 00:48:00,
2013-06-29 20:54:00,69.5,60.8,29.27,NW,319,0.0,0.0,74,0.00,,,0.00,Wunderground v.1.15,2013-06-30 00:54:00,
2013-06-29 21:00:00,69.4,60.8,29.27,NW,319,0.0,0.0,74,0.00,,,0.00,Wunderground v.1.15,2013-06-30 01:00:00,
2013-06-29 21:02:00,69.3,60.7,29.27,NW,319,0.0,0.0,74,0.00,,,0.00,Wunderground v.1.15,2013-06-30 01:02:00,
2013-06-29 21:07:00,69.2,60.6,29.28,NW,319,0.0,0.0,74,0.00,,,0.00,Wunderground v.1.15,2013-06-30 01:07:00,
2013-06-29 21:13:00,69.0,60.4,29.28,NW,319,0.0,0.0,74,0.00,,,0.00,Wunderground v.1.15,2013-06-30 01:13:00,
2013-06-29 21:18:00,68.8,60.6,29.29,NW,319,0.0,0.0,75,0.00,,,0.00,Wunderground v.1.15,2013-06-30 01:18:00,
2013-06-29 21:24:00,68.7,60.5,29.29,NW,319,0.0,0.0,75,0.00,,,0.00,Wunderground v.1.15,2013-06-30 01:24:00,
2013-06-29 21:30:00,68.6,60.4,29.29,NW,319,0.0,0.0,75,0.00,,,0.00,Wunderground v.1.15,2013-06-30 01:30:00,
2013-06-29 21:36:00,68.5,60.6,29.30,NW,319,0.0,0.0,76,0.00,,,0.00,Wunderground v.1.15,2013-06-30 01:36:00,
2013-06-29 21:41:00,68.4,60.5,29.30,NW,319,0.0,0.0,76,0.00,,,0.00,Wunderground v.1.15,2013-06-30 01:41:00,
2013-06-29 21:48:00,68.3,60.4,29.30,NW,319,0.0,0.0,76,0.00,,,0.00,Wunderground v.1.15,2013-06-30 01:48:00,
2013-06-29 21:54:00,68.2,60.7,29.31,NW,319,0.0,0.0,77,0.00,,,0.00,Wunderground v.1.15,2013-06-30 01:54:00,
2013-06-29 22:00:00,68.2,60.7,29.31,NW,319,0.0,0.0,77,0.00,,,0.00,Wunderground v.1.15,2013-06-30 02:00:00,
2013-06-29 22:06:00,68.1,60.6,29.32,NW,319,0.0,0.0,77,0.00,,,0.00,Wunderground v.1.15,2013-06-30 02:06:00,
2013-06-29 22:12:00,68.1,60.6,29.32,NW,319,0.0,0.0,77,0.00,,,0.00,Wunderground v.1.15,2013-06-30 02:12:00,
2013-06-29 22:18:00,68.0,60.5,29.32,NW,319,0.0,0.0,77,0.00,,,0.00,Wunderground v.1.15,2013-06-30 02:18:00,
2013-06-29 22:23:00,68.0,60.5,29.32,NW,319,0.0,0.0,77,0.00,,,0.00,Wunderground v.1.15,2013-06-30 02:23:00,
2013-06-29 22:29:00,67.9,60.8,29.32,NW,319,0.0,0.0,78,0.00,,,0.00,Wunderground v.1.15,2013-06-30 02:29:00,
2013-06-29 22:35:00,67.9,60.8,29.33,NW,319,0.0,0.0,78,0.00,,,0.00,Wunderground v.1.15,2013-06-30 02:35:00,
2013-06-29 22:41:00,67.8,60.3,29.32,NW,319,0.0,0.0,77,0.00,,,0.00,Wunderground v.1.15,2013-06-30 02:41:00,
2013-06-29 22:48:00,67.7,60.2,29.32,NW,319,0.0,0.0,77,0.00,,,0.00,Wunderground v.1.15,2013-06-30 02:48:00,
2013-06-29 22:54:00,67.7,60.2,29.32,NW,319,0.0,0.0,77,0.00,,,0.00,Wunderground v.1.15,2013-06-30 02:54:00,
2013-06-29 23:00:00,67.6,60.1,29.32,NW,319,0.0,0.0,77,0.00,,,0.00,Wunderground v.1.15,2013-06-30 03:00:00,
2013-06-29 23:06:00,67.6,60.1,29.32,NW,319,0.0,1.0,77,0.00,,,0.00,Wunderground v.1.15,2013-06-30 03:06:00,
2013-06-29 23:12:00,67.6,59.8,29.32,NW,319,0.0,0.0,76,0.00,,,0.00,Wunderground v.1.15,2013-06-30 03:12:00,
2013-06-29 23:17:00,67.5,59.3,29.32,NW,319,0.0,1.0,75,0.00,,,0.00,Wunderground v.1.15,2013-06-30 03:17:00,
2013-06-29 23:23:00,67.4,59.6,29.32,NW,319,0.0,0.0,76,0.00,,,0.00,Wunderground v.1.15,2013-06-30 03:23:00,
2013-06-29 23:28:00,67.4,59.6,29.32,NW,319,0.0,0.0,76,0.00,,,0.00,Wunderground v.1.15,2013-06-30 03:28:00,
2013-06-29 23:34:00,67.4,60.3,29.32,NW,319,0.0,0.0,78,0.00,,,0.00,Wunderground v.1.15,2013-06-30 03:34:00,
2013-06-29 23:40:00,67.3,60.2,29.32,NW,319,0.0,0.0,78,0.00,,,0.00,Wunderground v.1.15,2013-06-30 03:40:00,
2013-06-29 23:45:00,67.3,59.8,29.32,NW,319,0.0,0.0,77,0.00,,,0.00,Wunderground v.1.15,2013-06-30 03:45:00,
2013-06-29 23:51:00,67.3,59.5,29.32,NW,319,0.0,1.0,76,0.00,,,0.00,Wunderground v.1.15,2013-06-30 03:51:00,
2013-06-29 23:56:00,67.2,59.4,29.32,NW,319,0.0,1.0,76,0.00,,,0.00,Wunderground v.1.15,2013-06-30 03:56:00,